Flight Track Log - Related Links

Times and Time Zones

All times are in EDT time to prevent confusion due to time zone crossing. See the AWI3778 flight status page for this flight to view local times or setup timezone preferences in your user account.

Time Position Orientation Groundspeed Altitude Reporting Facility
EDT Latitude Longitude Course Direction KTS MPH feet Rate Location/Type
Thu 02:26:15 PM 44.4036 -73.0417 132° Southeast 195 224 4,800  Level Boston Center
Thu 02:27:15 PM 44.3428 -73.0786 203° Southwest 175 201 6,400 2,085 Climbing Boston Center
Thu 02:28:13 PM 44.2781 -73.1331 211° Southwest 231 266 8,900 2,471 Climbing Boston Center
Thu 02:29:14 PM 44.2111 -73.1844 209° Southwest 271 312 11,300 1,967 Climbing Boston Center
Thu 02:30:00 PM 43.9075 -73.3637 196° South  Level FlightAware Approximate
Thu 02:30:15 PM 44.1336 -73.2211 199° South 291 335 12,900  Level Boston Center
Thu 02:31:15 PM 44.0542 -73.2547 197° South 321 369 14,300 1,538 Climbing Boston Center
Thu 02:32:12 PM 43.9664 -73.2939 198° South 334 384 15,900 1,322 Climbing Boston Center
Thu 02:33:13 PM 43.8767 -73.3328 197° South 334 384 16,900 893 Climbing Boston Center
Thu 02:34:13 PM 43.7783 -73.3747 197° South 355 409 17,700 744 Climbing Boston Center
Thu 02:35:14 PM 43.6819 -73.4161 197° South 368 423 18,400 750 Climbing Boston Center
Thu 02:36:13 PM 43.5669 -73.4658 197° South 380 437 19,200 750 Climbing Boston Center
Thu 02:37:14 PM 43.4625 -73.5100 197° South 387 445 19,900 700 Climbing Boston Center
Thu 02:38:13 PM 43.3658 -73.5825 209° Southwest 387 445 20,600 706 Climbing Boston Center
Thu 02:39:13 PM 43.2814 -73.6808 220° Southwest 394 453 21,300 650 Climbing Boston Center
Thu 02:40:13 PM 43.2056 -73.7703 221° Southwest 405 466 21,900 347 Climbing Boston Center
Thu 02:41:14 PM 43.1231 -73.8681 221° Southwest 405 466 22,000 49 Climbing Boston Center
Thu 02:42:15 PM 43.0319 -73.9767 221° Southwest 418 481 22,000  Level Boston Center
Thu 02:43:15 PM 42.9431 -74.0822 221° Southwest 423 487 22,000  Level Boston Center
Thu 02:44:13 PM 42.8517 -74.1847 219° Southwest 428 493 22,000  Level Boston Center
Thu 02:45:14 PM 42.7519 -74.3006 220° Southwest 428 493 22,000  Level Boston Center
Thu 02:46:15 PM 42.6647 -74.4053 221° Southwest 428 493 22,000  Level Boston Center
Thu 02:47:13 PM 42.5711 -74.5094 219° Southwest 433 498 22,000  Level Boston Center
Thu 02:48:13 PM 42.4794 -74.6161 221° Southwest 438 504 22,000 -50 Level Boston Center
Thu 02:49:14 PM 42.3900 -74.7142 219° Southwest 433 498 21,900  Descending Boston Center
Thu 02:51:43 PM 42.1861 -74.9131 216° Southwest 371 427 22,000 -114 Climbing New York Center
Thu 02:52:44 PM 42.0956 -75.0050 217° Southwest 366 421 21,500 -1,150 Descending New York Center
Thu 02:53:43 PM 42.0114 -75.0861 216° Southwest 382 440 19,700 -1,361 Descending New York Center
Thu 02:54:43 PM 41.9356 -75.1733 221° Southwest 366 421 18,800 -942 Descending New York Center
Thu 02:55:44 PM 41.8961 -75.2792 243° Southwest 347 399 17,800 -1,050 Descending New York Center
Thu 02:56:43 PM 41.8494 -75.4069 244° Southwest 359 413 16,700 -1,300 Descending New York Center
Thu 02:57:44 PM 41.8075 -75.5208 244° Southwest 353 406 15,200 -1,289 Descending New York Center
Thu 02:58:44 PM 41.7383 -75.5856 215° Southwest 317 365 14,100 -1,017 Descending New York Center
Thu 02:59:42 PM 41.6522 -75.6042 189° South 316 364 13,200 -704 Descending New York Center
Thu 03:01:00 PM 41.5312 -75.6140 185° South  Level FlightAware Approximate
Thu 03:01:43 PM 41.4589 -75.6483 185° South 340 391 12,000  Level New York Center
Thu 03:02:43 PM 41.3683 -75.6667 189° South 335 386 12,000  Level New York Center
Thu 03:03:42 PM 41.2781 -75.6878 190° South 335 386 12,000  Level New York Center
Thu 03:04:43 PM 41.1864 -75.6894 181° South 330 380 12,000  Level New York Center
Thu 03:05:43 PM 41.0925 -75.6881 179° South 359 413 12,000  Level New York Center
Thu 03:06:44 PM 40.9758 -75.6878 180° South 380 437 12,000  Level New York Center
Thu 03:07:42 PM 40.8803 -75.6864 179° South 387 445 12,000  Level New York Center
Thu 03:08:43 PM 40.7636 -75.6836 179° South 387 445 12,000  Level New York Center
Thu 03:09:42 PM 40.6703 -75.6222 153° Southeast 370 426 12,000  Level New York Center
Thu 03:10:42 PM 40.5836 -75.5478 147° Southeast 380 437 12,000 -397 Level New York Center
Thu 03:11:43 PM 40.5111 -75.4853 147° Southeast 341 392 11,200 -992 Descending New York Center
Thu 03:12:43 PM 40.4406 -75.4286 149° Southeast 308 354 10,000 -843 Descending New York Center
Thu 03:13:44 PM 40.3625 -75.3961 162° South 295 339 9,500 -756 Descending New York Center
Thu 03:14:42 PM 40.2847 -75.3639 162° South 290 334 8,500 -1,008 Descending New York Center
Thu 03:15:43 PM 40.2133 -75.3211 155° Southeast 283 326 7,500 -984 Descending New York Center
Thu 03:16:44 PM 40.1497 -75.2922 161° South 278 320 6,500 -918 Descending New York Center
Thu 03:17:21 PM 40.1000 -75.2667 159° South 281 323 6,000 -353 Descending Philadelphia TRACON
Thu 03:18:09 PM 40.0500 -75.2000 134° Southeast 271 312 6,000  Level Philadelphia TRACON
Thu 03:19:09 PM 40.0000 -75.1500 143° Southeast 237 273 6,000  Level Philadelphia TRACON
Thu 03:20:09 PM 39.9833 -75.0833 108° East 242 278 6,000  Level Philadelphia TRACON
Thu 03:21:09 PM 40.0000 -75.0000 75° East 201 231 6,000 -50 Level Philadelphia TRACON
Thu 03:22:09 PM 40.0333 -74.9333 57° Northeast 211 243 5,900 -500 Descending Philadelphia TRACON
Thu 03:23:09 PM 40.0500 -74.8667 72° East 218 251 5,000 -581 Descending Philadelphia TRACON
Thu 03:23:42 PM 40.0267 -74.8369 136° Southeast 172 198 5,000 -484 Level New York Center
Thu 03:26:15 PM 39.9500 -74.9333 224° Southwest 182 209 3,500 -617 Descending Philadelphia TRACON
Thu 03:27:16 PM 39.9333 -75.0000 252° West 169 194 2,800 -678 Descending Philadelphia TRACON
Thu 03:28:10 PM 39.9167 -75.0500 247° West 166 191 2,200 -550 Descending Philadelphia TRACON
Thu 03:29:16 PM 39.9000 -75.1167 252° West 177 204 1,700 -667 Descending Philadelphia TRACON
Thu 03:30:16 PM 39.8833 -75.1667 247° West 140 161 800 -900 Descending Philadelphia TRACON

Login

Don't have an account? Register now (free) for customized features, flight alerts, and more!